createdAt,value
2023-08-20T00:01:36.550Z,19.32
2023-08-20T00:04:04.627Z,19.30
2023-08-20T00:06:33.473Z,19.26
2023-08-20T00:09:01.259Z,19.22
2023-08-20T00:11:28.580Z,19.20
2023-08-20T00:13:55.660Z,19.15
2023-08-20T00:16:22.986Z,19.13
2023-08-20T00:18:50.198Z,19.11
2023-08-20T00:21:17.651Z,19.12
2023-08-20T00:23:44.853Z,19.13
2023-08-20T00:26:14.030Z,19.14
2023-08-20T00:28:41.900Z,19.11
2023-08-20T00:31:09.067Z,19.12
2023-08-20T00:33:36.707Z,19.11
2023-08-20T00:36:04.037Z,19.07
2023-08-20T00:38:31.711Z,19.02
2023-08-20T00:40:59.607Z,18.99
2023-08-20T00:43:26.831Z,18.96
2023-08-20T00:45:54.707Z,18.94
2023-08-20T00:48:22.183Z,18.88
2023-08-20T00:50:49.856Z,18.83
2023-08-20T00:53:18.231Z,18.83
2023-08-20T00:55:46.636Z,18.83
2023-08-20T00:58:14.257Z,18.83
2023-08-20T01:00:41.512Z,18.83
2023-08-20T01:03:10.896Z,18.80
2023-08-20T01:05:45.395Z,18.75
2023-08-20T01:08:23.452Z,18.71
2023-08-20T01:10:59.306Z,18.68
2023-08-20T01:13:27.065Z,18.68
2023-08-20T01:15:54.497Z,18.66
2023-08-20T01:18:21.761Z,18.68
2023-08-20T01:20:54.365Z,18.68
2023-08-20T01:23:58.580Z,18.71
2023-08-20T01:26:51.098Z,18.72
2023-08-20T01:29:18.811Z,18.71
2023-08-20T01:31:46.492Z,18.70
2023-08-20T01:34:14.416Z,18.69
2023-08-20T01:36:41.746Z,18.64
2023-08-20T01:39:11.861Z,18.62
2023-08-20T01:41:39.291Z,18.59
2023-08-20T01:44:06.695Z,18.56
2023-08-20T01:46:34.086Z,18.56
2023-08-20T01:49:01.336Z,18.53
2023-08-20T01:51:29.477Z,18.56
2023-08-20T01:53:58.459Z,18.55
2023-08-20T01:56:25.687Z,18.53
2023-08-20T01:58:52.880Z,18.50
2023-08-20T02:01:21.179Z,18.47
2023-08-20T02:03:48.244Z,18.48
2023-08-20T02:06:15.342Z,18.46
2023-08-20T02:08:45.954Z,18.48
2023-08-20T02:11:12.941Z,18.46
2023-08-20T02:13:40.036Z,18.46
2023-08-20T02:16:08.106Z,18.42
2023-08-20T02:18:35.389Z,18.40
2023-08-20T02:21:02.405Z,18.42
2023-08-20T02:23:29.586Z,18.42
2023-08-20T02:25:57.169Z,18.42
2023-08-20T02:28:24.291Z,18.42
2023-08-20T02:30:51.950Z,18.40
2023-08-20T02:33:19.087Z,18.34
2023-08-20T02:35:46.363Z,18.31
2023-08-20T02:38:13.413Z,18.30
2023-08-20T02:40:44.735Z,18.31
2023-08-20T02:43:13.163Z,18.27
2023-08-20T02:45:46.639Z,18.24
2023-08-20T02:48:15.199Z,18.20
2023-08-20T02:50:42.613Z,18.20
2023-08-20T02:53:09.895Z,18.19
2023-08-20T02:55:36.918Z,18.17
2023-08-20T02:58:05.141Z,18.18
2023-08-20T03:00:32.722Z,18.16
2023-08-20T03:02:59.990Z,18.16
2023-08-20T03:05:27.345Z,18.14
2023-08-20T03:07:57.612Z,18.13
2023-08-20T03:10:24.954Z,18.12
2023-08-20T03:12:51.952Z,18.13
2023-08-20T03:15:19.021Z,18.16
2023-08-20T03:17:46.135Z,18.15
2023-08-20T03:20:13.497Z,18.13
2023-08-20T03:22:40.545Z,18.11
2023-08-20T03:25:08.271Z,18.12
2023-08-20T03:27:35.713Z,18.10
2023-08-20T03:30:05.118Z,18.09
2023-08-20T03:32:33.284Z,18.11
2023-08-20T03:35:02.883Z,18.11
2023-08-20T03:37:30.318Z,18.12
2023-08-20T03:39:58.190Z,18.13
2023-08-20T03:42:25.099Z,18.19
2023-08-20T03:44:52.139Z,18.29
2023-08-20T03:47:21.708Z,18.43
2023-08-20T03:49:49.613Z,18.58
2023-08-20T03:52:16.875Z,18.76
2023-08-20T03:54:43.910Z,18.89
2023-08-20T03:57:10.923Z,19.09
2023-08-20T03:59:37.951Z,19.30
2023-08-20T04:02:05.248Z,19.50
2023-08-20T04:04:32.818Z,19.76
2023-08-20T04:07:00.181Z,20.00
2023-08-20T04:09:27.105Z,20.26
2023-08-20T04:11:54.179Z,20.49
2023-08-20T04:14:21.208Z,20.71
2023-08-20T04:16:48.275Z,20.89
2023-08-20T04:19:15.229Z,21.08
2023-08-20T04:21:42.511Z,21.28
2023-08-20T04:24:09.919Z,21.48
2023-08-20T04:26:37.159Z,21.70
2023-08-20T04:29:04.439Z,21.98
2023-08-20T04:31:31.583Z,22.16
2023-08-20T04:34:04.378Z,22.31
2023-08-20T04:36:39.854Z,22.52
2023-08-20T04:39:06.945Z,22.69
2023-08-20T04:41:37.096Z,22.89
2023-08-20T04:44:04.859Z,23.03
2023-08-20T04:46:31.874Z,22.95
2023-08-20T04:48:59.348Z,22.79
2023-08-20T04:51:26.380Z,22.69
2023-08-20T04:53:53.537Z,22.61
2023-08-20T04:56:20.566Z,22.51
2023-08-20T04:58:47.693Z,22.55
2023-08-20T05:01:28.082Z,22.64
2023-08-20T05:03:55.229Z,22.85
2023-08-20T05:06:22.559Z,23.03
2023-08-20T05:08:49.598Z,23.14
2023-08-20T05:11:16.738Z,23.20
2023-08-20T05:13:46.460Z,23.19
2023-08-20T05:16:14.071Z,23.29
2023-08-20T05:18:41.222Z,23.53
2023-08-20T05:21:08.379Z,23.68
2023-08-20T05:23:37.870Z,23.70
2023-08-20T05:26:04.888Z,23.52
2023-08-20T05:28:32.626Z,23.30
2023-08-20T05:31:00.370Z,23.19
2023-08-20T05:33:27.862Z,23.16
2023-08-20T05:35:56.221Z,23.16
2023-08-20T05:38:23.586Z,23.08
2023-08-20T05:40:51.805Z,23.03
2023-08-20T05:43:18.918Z,22.97
2023-08-20T05:45:46.203Z,22.89
2023-08-20T05:48:18.835Z,22.90
2023-08-20T05:50:46.253Z,22.93
2023-08-20T05:53:13.418Z,22.90
2023-08-20T05:55:44.476Z,22.87
2023-08-20T05:58:12.471Z,22.88
2023-08-20T06:00:39.710Z,22.93
2023-08-20T06:03:08.688Z,23.00
2023-08-20T06:05:36.082Z,23.03
2023-08-20T06:08:03.322Z,23.07
2023-08-20T06:10:30.501Z,23.13
2023-08-20T06:12:58.370Z,23.22
2023-08-20T06:15:25.773Z,23.32
2023-08-20T06:17:52.879Z,23.43
2023-08-20T06:20:20.090Z,23.51
2023-08-20T06:22:47.538Z,23.65
2023-08-20T06:25:14.685Z,23.87
2023-08-20T06:27:43.004Z,24.16
2023-08-20T06:30:10.895Z,24.43
2023-08-20T06:32:37.937Z,24.65
2023-08-20T06:35:05.617Z,24.93
2023-08-20T06:37:33.277Z,25.10
2023-08-20T06:40:00.758Z,25.24
2023-08-20T06:42:27.952Z,25.44
2023-08-20T06:44:55.437Z,25.65
2023-08-20T06:47:22.469Z,25.86
2023-08-20T06:49:50.749Z,26.07
2023-08-20T06:52:18.299Z,26.28
2023-08-20T06:54:46.239Z,26.48
2023-08-20T06:57:13.442Z,26.70
2023-08-20T06:59:40.629Z,26.93
2023-08-20T07:02:07.751Z,27.10
2023-08-20T07:04:35.330Z,27.31
2023-08-20T07:07:02.496Z,27.50
2023-08-20T07:09:29.696Z,27.68
2023-08-20T07:11:57.122Z,27.74
2023-08-20T07:14:24.343Z,27.83
2023-08-20T07:16:51.439Z,27.96
2023-08-20T07:19:18.882Z,28.01
2023-08-20T07:21:46.082Z,28.10
2023-08-20T07:24:13.331Z,28.13
2023-08-20T07:26:40.788Z,28.23
2023-08-20T07:29:07.898Z,28.27
2023-08-20T07:31:39.654Z,28.37
2023-08-20T07:36:39.881Z,28.70
2023-08-20T07:39:07.115Z,28.77
2023-08-20T07:41:34.304Z,28.84
2023-08-20T07:44:01.453Z,28.95
2023-08-20T07:46:28.710Z,28.95
2023-08-20T07:48:55.893Z,28.91
2023-08-20T07:51:23.108Z,28.92
2023-08-20T07:53:50.233Z,29.01
2023-08-20T07:56:17.252Z,29.08
2023-08-20T07:58:44.570Z,29.02
2023-08-20T08:01:11.609Z,28.98
2023-08-20T08:03:39.031Z,29.05
2023-08-20T08:06:06.411Z,29.11
2023-08-20T08:08:33.544Z,29.15
2023-08-20T08:11:00.800Z,29.14
2023-08-20T08:13:28.042Z,29.17
2023-08-20T08:15:55.531Z,29.21
2023-08-20T08:18:22.983Z,29.24
2023-08-20T08:20:50.722Z,28.92
2023-08-20T08:23:17.687Z,28.89
2023-08-20T08:25:44.889Z,28.79
2023-08-20T08:28:11.912Z,28.62
2023-08-20T08:30:39.764Z,28.64
2023-08-20T08:33:06.830Z,28.73
2023-08-20T08:35:33.898Z,28.81
2023-08-20T08:38:04.777Z,28.43
2023-08-20T08:40:32.110Z,27.95
2023-08-20T08:42:59.865Z,27.90
2023-08-20T08:45:28.153Z,28.17
2023-08-20T08:47:56.578Z,28.61
2023-08-20T08:50:23.892Z,28.82
2023-08-20T08:52:54.015Z,28.99
2023-08-20T08:55:21.368Z,29.33
2023-08-20T08:57:48.823Z,29.27
2023-08-20T09:00:16.479Z,29.35
2023-08-20T09:02:44.186Z,29.26
2023-08-20T09:05:12.582Z,28.86
2023-08-20T09:07:46.144Z,28.90
2023-08-20T09:10:13.848Z,28.86
2023-08-20T09:12:41.135Z,28.85
2023-08-20T09:15:12.825Z,29.10
2023-08-20T09:17:43.305Z,29.15
2023-08-20T09:20:10.986Z,29.38
2023-08-20T09:22:38.958Z,29.58
2023-08-20T09:25:06.445Z,29.70
2023-08-20T09:27:41.378Z,29.62
2023-08-20T09:30:09.186Z,29.59
2023-08-20T09:32:36.276Z,29.50
2023-08-20T09:35:03.484Z,29.26
2023-08-20T09:37:30.436Z,28.90
2023-08-20T09:39:57.664Z,28.73
2023-08-20T09:42:29.336Z,28.62
2023-08-20T09:44:56.770Z,28.63
2023-08-20T09:47:25.820Z,28.65
2023-08-20T09:49:54.056Z,28.94
2023-08-20T09:52:27.221Z,29.21
2023-08-20T09:55:10.082Z,29.54
2023-08-20T09:57:41.977Z,29.74
2023-08-20T10:00:13.469Z,30.05
2023-08-20T10:02:42.025Z,30.27
2023-08-20T10:05:13.355Z,30.47
2023-08-20T10:07:40.639Z,30.70
2023-08-20T10:10:15.066Z,30.80
2023-08-20T10:12:43.296Z,30.61
2023-08-20T10:15:11.749Z,30.51
2023-08-20T10:17:40.759Z,30.50
2023-08-20T10:20:12.168Z,30.41
2023-08-20T10:22:43.960Z,30.47
2023-08-20T10:25:24.322Z,30.36
2023-08-20T10:27:51.654Z,30.36
2023-08-20T10:30:22.564Z,30.37
2023-08-20T10:32:51.606Z,30.48
2023-08-20T10:35:24.971Z,30.48
2023-08-20T10:38:19.584Z,30.46
2023-08-20T10:40:57.201Z,30.46
2023-08-20T10:43:35.785Z,30.54
2023-08-20T10:46:26.667Z,30.52
2023-08-20T10:49:02.497Z,30.55
2023-08-20T10:51:34.650Z,30.66
2023-08-20T10:54:08.419Z,30.66
2023-08-20T10:56:44.815Z,30.55
2023-08-20T10:59:32.024Z,30.32
2023-08-20T11:02:00.559Z,30.36
2023-08-20T11:04:35.760Z,30.39
2023-08-20T11:07:04.391Z,30.26
2023-08-20T11:09:32.472Z,30.01
2023-08-20T11:12:00.569Z,29.92
2023-08-20T11:14:27.962Z,29.90
2023-08-20T11:16:55.523Z,29.84
2023-08-20T11:19:24.165Z,29.80
2023-08-20T11:21:52.255Z,29.95
2023-08-20T11:24:21.127Z,30.16
2023-08-20T11:26:48.767Z,29.81
2023-08-20T11:29:21.211Z,29.19
2023-08-20T11:31:49.835Z,29.06
2023-08-20T11:34:17.827Z,28.93
2023-08-20T11:36:45.209Z,28.89
2023-08-20T11:39:12.695Z,28.76
2023-08-20T11:41:40.820Z,28.85
2023-08-20T11:44:10.502Z,29.12
2023-08-20T11:46:44.473Z,29.22
2023-08-20T11:49:12.888Z,29.16
2023-08-20T11:51:41.774Z,29.04
2023-08-20T11:54:11.402Z,28.90
2023-08-20T11:56:46.693Z,28.73
2023-08-20T11:59:15.213Z,28.46
2023-08-20T12:01:42.489Z,28.21
2023-08-20T12:04:11.349Z,27.90
2023-08-20T12:06:39.576Z,27.64
2023-08-20T12:09:26.847Z,27.35
2023-08-20T12:11:57.319Z,27.19
2023-08-20T12:14:24.996Z,26.81
2023-08-20T12:16:52.697Z,26.11
2023-08-20T12:19:20.206Z,25.37
2023-08-20T12:21:47.361Z,25.31
2023-08-20T12:24:14.813Z,25.42
2023-08-20T12:26:41.996Z,25.54
2023-08-20T12:29:09.721Z,25.48
2023-08-20T12:31:37.152Z,25.32
2023-08-20T12:34:04.698Z,24.95
2023-08-20T12:36:32.008Z,25.02
2023-08-20T12:38:59.401Z,25.15
2023-08-20T12:41:26.798Z,25.32
2023-08-20T12:43:53.968Z,25.45
2023-08-20T12:46:21.610Z,25.64
2023-08-20T12:48:48.853Z,25.84
2023-08-20T12:51:18.450Z,26.02
2023-08-20T12:53:45.808Z,25.70
2023-08-20T12:56:13.261Z,25.64
2023-08-20T12:58:40.569Z,25.64
2023-08-20T13:01:08.338Z,25.79
2023-08-20T13:03:36.212Z,25.96
2023-08-20T13:06:03.706Z,26.06
2023-08-20T13:08:31.964Z,26.16
2023-08-20T13:10:59.677Z,25.94
2023-08-20T13:13:27.354Z,25.93
2023-08-20T13:15:55.408Z,26.10
2023-08-20T13:18:26.596Z,26.13
2023-08-20T13:20:54.659Z,25.99
2023-08-20T13:23:21.964Z,26.02
2023-08-20T13:25:49.123Z,26.11
2023-08-20T13:28:16.344Z,26.26
2023-08-20T13:30:43.627Z,26.32
2023-08-20T13:33:10.685Z,26.45
2023-08-20T13:35:37.961Z,26.77
2023-08-20T13:38:05.932Z,26.83
2023-08-20T13:40:33.154Z,26.99
2023-08-20T13:43:00.381Z,27.00
2023-08-20T13:45:27.632Z,26.78
2023-08-20T13:47:54.884Z,26.68
2023-08-20T13:50:22.357Z,26.75
2023-08-20T13:52:49.560Z,26.85
2023-08-20T13:55:16.894Z,27.06
2023-08-20T13:57:44.164Z,27.09
2023-08-20T14:00:13.888Z,27.27
2023-08-20T14:02:41.747Z,27.50
2023-08-20T14:05:09.641Z,27.58
2023-08-20T14:07:36.900Z,27.74
2023-08-20T14:10:05.617Z,27.80
2023-08-20T14:12:33.067Z,27.86
2023-08-20T14:15:00.198Z,27.99
2023-08-20T14:17:28.590Z,28.06
2023-08-20T14:19:55.660Z,28.03
2023-08-20T14:22:23.014Z,28.06
2023-08-20T14:24:49.930Z,27.70
2023-08-20T14:27:17.018Z,27.49
2023-08-20T14:29:44.145Z,27.29
2023-08-20T14:32:11.422Z,27.28
2023-08-20T14:34:38.435Z,27.06
2023-08-20T14:37:05.633Z,27.00
2023-08-20T14:39:33.049Z,26.95
2023-08-20T14:42:00.849Z,27.02
2023-08-20T14:44:28.727Z,27.03
2023-08-20T14:46:56.052Z,27.01
2023-08-20T14:49:23.157Z,27.02
2023-08-20T14:51:50.766Z,26.95
2023-08-20T14:54:17.799Z,26.89
2023-08-20T14:56:45.771Z,26.80
2023-08-20T14:59:12.812Z,26.54
2023-08-20T15:01:40.091Z,26.60
2023-08-20T15:04:08.124Z,26.57
2023-08-20T15:06:35.390Z,26.53
2023-08-20T15:09:02.372Z,26.45
2023-08-20T15:11:29.509Z,26.52
2023-08-20T15:13:56.778Z,26.67
2023-08-20T15:16:23.987Z,26.74
2023-08-20T15:18:51.311Z,26.53
2023-08-20T15:21:18.503Z,26.38
2023-08-20T15:23:45.794Z,26.11
2023-08-20T15:26:13.439Z,26.08
2023-08-20T15:28:40.773Z,26.16
2023-08-20T15:31:08.873Z,26.22
2023-08-20T15:33:36.108Z,26.07
2023-08-20T15:36:04.288Z,26.10
2023-08-20T15:38:31.270Z,25.93
2023-08-20T15:41:00.350Z,25.89
2023-08-20T15:43:28.475Z,25.82
2023-08-20T15:45:58.471Z,25.79
2023-08-20T15:48:25.484Z,25.68
2023-08-20T15:50:52.659Z,25.73
2023-08-20T15:53:19.901Z,25.82
2023-08-20T15:55:48.035Z,25.78
2023-08-20T15:58:15.247Z,25.62
2023-08-20T16:00:42.334Z,25.55
2023-08-20T16:03:10.165Z,25.53
2023-08-20T16:05:37.183Z,25.50
2023-08-20T16:08:04.667Z,25.44
2023-08-20T16:10:31.954Z,25.46
2023-08-20T16:12:59.155Z,25.16
2023-08-20T16:15:27.253Z,25.02
2023-08-20T16:17:55.849Z,25.02
2023-08-20T16:20:23.376Z,24.87
2023-08-20T16:22:50.761Z,24.82
2023-08-20T16:25:17.969Z,24.66
2023-08-20T16:27:45.168Z,24.75
2023-08-20T16:30:12.773Z,24.61
2023-08-20T16:32:40.238Z,24.57
2023-08-20T16:35:07.965Z,24.73
2023-08-20T16:37:35.569Z,24.66
2023-08-20T16:40:06.625Z,24.64
2023-08-20T16:42:33.861Z,24.79
2023-08-20T16:45:00.996Z,24.92
2023-08-20T16:47:28.139Z,25.04
2023-08-20T16:49:55.351Z,25.08
2023-08-20T16:52:22.368Z,25.11
2023-08-20T16:54:49.563Z,25.10
2023-08-20T16:57:16.787Z,25.03
2023-08-20T16:59:43.910Z,24.92
2023-08-20T17:02:11.102Z,24.78
2023-08-20T17:04:38.177Z,24.63
2023-08-20T17:07:05.567Z,24.42
2023-08-20T17:09:32.832Z,24.34
2023-08-20T17:12:00.429Z,24.24
2023-08-20T17:14:28.290Z,24.13
2023-08-20T17:16:56.272Z,24.00
2023-08-20T17:19:24.270Z,23.91
2023-08-20T17:21:51.931Z,23.83
2023-08-20T17:24:19.609Z,23.73
2023-08-20T17:26:47.021Z,23.61
2023-08-20T17:29:14.107Z,23.47
2023-08-20T17:31:41.320Z,23.37
2023-08-20T17:34:09.475Z,23.29
2023-08-20T17:36:36.765Z,23.17
2023-08-20T17:39:04.810Z,23.11
2023-08-20T17:41:32.428Z,23.04
2023-08-20T17:43:59.663Z,22.98
2023-08-20T17:46:26.912Z,22.92
2023-08-20T17:48:54.071Z,22.88
2023-08-20T17:51:21.215Z,22.83
2023-08-20T17:53:48.180Z,22.80
2023-08-20T17:56:15.430Z,22.78
2023-08-20T17:58:42.504Z,22.74
2023-08-20T18:01:09.780Z,22.68
2023-08-20T18:03:36.854Z,22.64
2023-08-20T18:06:04.012Z,22.56
2023-08-20T18:08:31.235Z,22.50
2023-08-20T18:11:00.012Z,22.49
2023-08-20T18:13:27.427Z,22.41
2023-08-20T18:15:54.552Z,22.31
2023-08-20T18:18:21.628Z,22.22
2023-08-20T18:20:48.923Z,22.17
2023-08-20T18:23:18.041Z,22.10
2023-08-20T18:25:45.236Z,22.04
2023-08-20T18:28:12.391Z,21.99
2023-08-20T18:30:39.496Z,21.94
2023-08-20T18:33:06.733Z,21.88
2023-08-20T18:35:40.988Z,21.80
2023-08-20T18:38:19.998Z,21.72
2023-08-20T18:40:47.940Z,21.69
2023-08-20T18:43:15.211Z,21.63
2023-08-20T18:45:43.252Z,21.58
2023-08-20T18:48:10.831Z,21.52
2023-08-20T18:50:40.231Z,21.46
2023-08-20T18:53:08.631Z,21.42
2023-08-20T18:55:36.015Z,21.37
2023-08-20T18:58:03.509Z,21.30
2023-08-20T19:00:30.961Z,21.26
2023-08-20T19:02:58.183Z,21.18
2023-08-20T19:05:25.411Z,21.10
2023-08-20T19:07:54.322Z,21.05
2023-08-20T19:10:21.388Z,20.99
2023-08-20T19:12:48.644Z,20.92
2023-08-20T19:15:15.688Z,20.88
2023-08-20T19:17:42.798Z,20.84
2023-08-20T19:20:10.343Z,20.82
2023-08-20T19:22:39.443Z,20.78
2023-08-20T19:25:08.085Z,20.75
2023-08-20T19:27:35.642Z,20.70
2023-08-20T19:30:08.425Z,20.65
2023-08-20T19:32:36.936Z,20.61
2023-08-20T19:35:07.113Z,20.57
2023-08-20T19:37:34.318Z,20.54
2023-08-20T19:40:02.340Z,20.53
2023-08-20T19:42:29.549Z,20.46
2023-08-20T19:44:58.251Z,20.44
2023-08-20T19:47:25.509Z,20.39
2023-08-20T19:49:52.908Z,20.35
2023-08-20T19:52:20.286Z,20.29
2023-08-20T19:54:47.938Z,20.23
2023-08-20T19:57:16.106Z,20.16
2023-08-20T19:59:43.183Z,20.09
2023-08-20T20:02:10.239Z,20.02
2023-08-20T20:04:39.583Z,19.98
2023-08-20T20:09:49.907Z,19.84
2023-08-20T20:12:21.210Z,19.75
2023-08-20T20:14:50.499Z,19.63
2023-08-20T20:17:21.979Z,19.53
2023-08-20T20:19:54.505Z,19.47
2023-08-20T20:22:27.824Z,19.47
2023-08-20T20:24:59.018Z,19.44
2023-08-20T20:27:28.035Z,19.46
2023-08-20T20:29:57.326Z,19.45
2023-08-20T20:32:26.117Z,19.45
2023-08-20T20:34:54.492Z,19.48
2023-08-20T20:37:21.609Z,19.50
2023-08-20T20:39:48.762Z,19.54
2023-08-20T20:42:15.844Z,19.58
2023-08-20T20:44:44.058Z,19.65
2023-08-20T20:47:11.728Z,19.72
2023-08-20T20:49:39.045Z,19.77
2023-08-20T20:52:06.856Z,19.80
2023-08-20T20:54:34.000Z,19.82
2023-08-20T20:57:01.247Z,19.82
2023-08-20T20:59:28.384Z,19.77
2023-08-20T21:01:55.479Z,19.76
2023-08-20T21:04:22.636Z,19.75
2023-08-20T21:06:51.416Z,19.73
2023-08-20T21:09:18.749Z,19.70
2023-08-20T21:11:45.911Z,19.69
2023-08-20T21:14:12.964Z,19.65
2023-08-20T21:16:40.088Z,19.64
2023-08-20T21:19:07.400Z,19.63
2023-08-20T21:21:34.562Z,19.63
2023-08-20T21:24:01.631Z,19.57
2023-08-20T21:26:28.600Z,19.51
2023-08-20T21:28:55.512Z,19.46
2023-08-20T21:31:22.520Z,19.40
2023-08-20T21:33:49.499Z,19.37
2023-08-20T21:36:16.568Z,19.32
2023-08-20T21:38:43.413Z,19.32
2023-08-20T21:41:10.539Z,19.34
2023-08-20T21:43:37.758Z,19.38
2023-08-20T21:46:06.270Z,19.38
2023-08-20T21:48:33.389Z,19.36
2023-08-20T21:51:00.243Z,19.31
2023-08-20T21:53:27.484Z,19.29
2023-08-20T21:55:56.384Z,19.28
2023-08-20T21:58:23.807Z,19.26
2023-08-20T22:00:50.916Z,19.29
2023-08-20T22:03:17.931Z,19.31
2023-08-20T22:05:44.948Z,19.32
2023-08-20T22:08:14.444Z,19.36
2023-08-20T22:10:43.012Z,19.42
2023-08-20T22:13:10.327Z,19.48
2023-08-20T22:15:37.345Z,19.53
2023-08-20T22:18:04.556Z,19.56
2023-08-20T22:20:31.530Z,19.55
2023-08-20T22:22:58.553Z,19.58
2023-08-20T22:25:25.821Z,19.62
2023-08-20T22:27:52.955Z,19.68
2023-08-20T22:30:21.396Z,19.69
2023-08-20T22:32:48.355Z,19.74
2023-08-20T22:35:15.374Z,19.77
2023-08-20T22:37:43.484Z,19.79
2023-08-20T22:40:10.737Z,19.83
2023-08-20T22:42:38.073Z,19.82
2023-08-20T22:45:05.743Z,19.85
2023-08-20T22:47:32.828Z,19.87
2023-08-20T22:49:59.799Z,19.89
2023-08-20T22:52:26.912Z,19.92
2023-08-20T22:54:53.854Z,19.93
2023-08-20T22:57:20.831Z,19.94
2023-08-20T22:59:48.152Z,19.94
2023-08-20T23:02:15.037Z,19.95
2023-08-20T23:04:43.141Z,19.98
2023-08-20T23:07:11.147Z,19.98
2023-08-20T23:09:38.136Z,19.97
2023-08-20T23:12:05.434Z,19.92
2023-08-20T23:14:32.264Z,19.88
2023-08-20T23:16:59.342Z,19.87
2023-08-20T23:19:27.002Z,19.85
2023-08-20T23:21:53.956Z,19.85
2023-08-20T23:24:22.883Z,19.83
2023-08-20T23:26:51.054Z,19.84
2023-08-20T23:29:18.501Z,19.85
2023-08-20T23:31:45.926Z,19.86
2023-08-20T23:34:12.978Z,19.88
2023-08-20T23:36:39.819Z,19.89
2023-08-20T23:39:06.768Z,19.88
2023-08-20T23:41:33.908Z,19.85
2023-08-20T23:44:00.888Z,19.84
2023-08-20T23:46:46.498Z,19.82
2023-08-20T23:49:14.999Z,19.80
2023-08-20T23:51:41.840Z,19.76
2023-08-20T23:54:09.856Z,19.70
2023-08-20T23:56:36.761Z,19.68
2023-08-20T23:59:03.862Z,19.62
